Terminal Aerodrome Forecast
Issued by NWS

Home | Current Version | Previous Version | Text Only | Print | Product List | Glossary On
Versions: 1 2 3 4 5 6 7 8 9 10 11 12 13 14 15 16 17 18 19 20 21 22 23 24 25 26 27 28 29 30 31 32
703
FTUS41 KPBZ 182320
TAFBVI
TAF
KBVI 182320Z 1900/1924 21007KT P6SM BKN250
     FM190300 16005KT P6SM BKN060 WS020/22040KT
     FM191500 19014G22KT P6SM BKN060
     AMD NOT SKED 1902/1912=

USA.gov is the U.S. government's official web portal to all federal, state and local government web resources and services.